createdAt,value
2023-02-07T00:00:21.276Z,86.25
2023-02-07T00:01:21.124Z,86.25
2023-02-07T00:02:21.482Z,86.60
2023-02-07T00:03:21.074Z,85.94
2023-02-07T00:04:21.092Z,85.63
2023-02-07T00:05:21.361Z,85.63
2023-02-07T00:06:22.513Z,85.52
2023-02-07T00:07:22.173Z,85.52
2023-02-07T00:08:21.656Z,85.67
2023-02-07T00:09:24.482Z,84.69
2023-02-07T00:10:21.418Z,84.80
2023-02-07T00:11:21.529Z,84.48
2023-02-07T00:12:21.812Z,84.69
2023-02-07T00:13:21.077Z,84.52
2023-02-07T00:14:21.168Z,84.48
2023-02-07T00:15:21.632Z,84.83
2023-02-07T00:16:22.201Z,84.73
2023-02-07T00:17:21.089Z,84.52
2023-02-07T00:18:20.996Z,84.35
2023-02-07T00:19:21.165Z,84.56
2023-02-07T00:20:20.981Z,84.35
2023-02-07T00:21:22.119Z,84.66
2023-02-07T00:22:20.913Z,84.91
2023-02-07T00:23:20.879Z,84.50
2023-02-07T00:24:20.907Z,84.25
2023-02-07T00:25:21.061Z,82.93
2023-02-07T00:26:20.894Z,81.96
2023-02-07T00:27:20.864Z,79.98
2023-02-07T00:28:20.915Z,78.45
2023-02-07T00:29:20.955Z,77.72
2023-02-07T00:30:20.824Z,75.85
2023-02-07T00:31:21.098Z,75.81
2023-02-07T00:32:20.953Z,74.70
2023-02-07T00:33:21.633Z,74.49
2023-02-07T00:34:20.806Z,73.83
2023-02-07T00:35:20.738Z,74.70
2023-02-07T00:36:20.795Z,73.56
2023-02-07T00:37:20.732Z,74.08
2023-02-07T00:38:20.677Z,72.41
2023-02-07T00:39:20.771Z,71.75
2023-02-07T00:40:20.792Z,71.75
2023-02-07T00:41:20.890Z,71.97
2023-02-07T00:42:20.810Z,72.10
2023-02-07T00:43:29.345Z,71.58
2023-02-07T00:44:22.656Z,70.85
2023-02-07T00:45:20.623Z,70.85
2023-02-07T00:46:20.763Z,71.48
2023-02-07T00:47:20.743Z,70.75
2023-02-07T00:48:20.752Z,71.79
2023-02-07T00:49:20.740Z,71.58
2023-02-07T00:50:20.636Z,70.02
2023-02-07T00:51:20.601Z,70.43
2023-02-07T00:52:20.624Z,69.50
2023-02-07T00:53:20.616Z,69.81
2023-02-07T00:54:20.518Z,69.40
2023-02-07T00:55:20.598Z,68.74
2023-02-07T00:56:20.598Z,70.12
2023-02-07T00:57:20.738Z,68.35
2023-02-07T00:58:20.646Z,69.29
2023-02-07T00:59:20.674Z,67.63
2023-02-07T01:00:20.565Z,69.32
2023-02-07T01:01:20.749Z,69.09
2023-02-07T01:02:20.549Z,69.32
2023-02-07T01:03:20.597Z,68.88
2023-02-07T01:04:20.476Z,68.15
2023-02-07T01:05:20.420Z,68.98
2023-02-07T01:06:20.610Z,70.05
2023-02-07T01:07:20.403Z,69.32
2023-02-07T01:08:20.879Z,70.05
2023-02-07T01:09:20.422Z,70.36
2023-02-07T01:10:20.505Z,70.89
2023-02-07T01:11:21.092Z,71.12
2023-02-07T01:12:20.642Z,71.33
2023-02-07T01:13:20.613Z,71.89
2023-02-07T01:14:20.619Z,71.75
2023-02-07T01:15:21.111Z,71.37
2023-02-07T01:16:21.229Z,72.06
2023-02-07T01:17:23.776Z,72.09
2023-02-07T01:18:25.616Z,72.72
2023-02-07T01:19:20.306Z,72.83
2023-02-07T01:20:20.658Z,72.51
2023-02-07T01:21:20.647Z,72.51
2023-02-07T01:22:20.299Z,73.45
2023-02-07T01:23:20.244Z,72.86
2023-02-07T01:24:20.308Z,73.27
2023-02-07T01:25:21.652Z,73.17
2023-02-07T01:26:20.543Z,74.77
2023-02-07T01:27:20.350Z,74.25
2023-02-07T01:28:20.210Z,74.15
2023-02-07T01:29:20.373Z,73.52
2023-02-07T01:30:20.147Z,73.41
2023-02-07T01:31:20.404Z,73.83
2023-02-07T01:32:20.987Z,73.49
2023-02-07T01:33:20.174Z,73.69
2023-02-07T01:34:20.472Z,73.55
2023-02-07T01:35:20.392Z,73.55
2023-02-07T01:36:20.459Z,74.32
2023-02-07T01:37:20.193Z,73.35
2023-02-07T01:38:20.659Z,74.11
2023-02-07T01:39:20.404Z,74.63
2023-02-07T01:40:20.071Z,74.21
2023-02-07T01:41:20.655Z,74.98
2023-02-07T01:42:21.084Z,74.87
2023-02-07T01:43:20.426Z,75.18
2023-02-07T01:44:20.119Z,75.74
2023-02-07T01:45:20.109Z,75.85
2023-02-07T01:46:20.384Z,75.18
2023-02-07T01:47:20.086Z,75.08
2023-02-07T01:48:20.079Z,74.98
2023-02-07T01:49:20.062Z,75.29
2023-02-07T01:50:19.997Z,75.08
2023-02-07T01:51:20.036Z,74.98
2023-02-07T01:52:20.182Z,75.12
2023-02-07T01:53:20.108Z,74.66
2023-02-07T01:54:20.297Z,74.15
2023-02-07T01:55:20.048Z,74.15
2023-02-07T01:56:30.910Z,75.01
2023-02-07T01:57:20.861Z,74.80
2023-02-07T01:58:19.944Z,74.60
2023-02-07T01:59:19.981Z,73.52
2023-02-07T02:00:19.849Z,73.41
2023-02-07T02:01:20.431Z,73.21
2023-02-07T02:02:20.684Z,73.83
2023-02-07T02:03:19.975Z,72.78
2023-02-07T02:04:19.787Z,73.31
2023-02-07T02:05:19.908Z,73.45
2023-02-07T02:06:19.902Z,73.55
2023-02-07T02:07:19.791Z,73.34
2023-02-07T02:08:19.800Z,72.51
2023-02-07T02:09:19.844Z,71.88
2023-02-07T02:10:20.087Z,71.75
2023-02-07T02:11:19.829Z,70.91
2023-02-07T02:12:19.754Z,71.33
2023-02-07T02:13:19.830Z,71.33
2023-02-07T02:14:19.681Z,70.81
2023-02-07T02:15:20.071Z,71.98
2023-02-07T02:16:19.991Z,71.67
2023-02-07T02:17:19.710Z,71.47
2023-02-07T02:18:19.688Z,71.15
2023-02-07T02:19:20.591Z,70.28
2023-02-07T02:20:20.032Z,70.21
2023-02-07T02:21:20.183Z,70.18
2023-02-07T02:22:19.929Z,69.45
2023-02-07T02:23:20.791Z,69.35
2023-02-07T02:24:19.678Z,70.07
2023-02-07T02:25:19.718Z,69.97
2023-02-07T02:26:19.842Z,70.81
2023-02-07T02:27:19.580Z,71.67
2023-02-07T02:28:19.763Z,71.88
2023-02-07T02:29:19.958Z,72.41
2023-02-07T02:30:19.717Z,71.88
2023-02-07T02:31:19.676Z,72.30
2023-02-07T02:32:19.534Z,72.72
2023-02-07T02:33:19.531Z,73.13
2023-02-07T02:34:19.683Z,72.92
2023-02-07T02:35:19.560Z,72.09
2023-02-07T02:36:19.567Z,72.09
2023-02-07T02:37:19.987Z,72.19
2023-02-07T02:38:19.523Z,72.61
2023-02-07T02:39:19.436Z,72.19
2023-02-07T02:40:19.491Z,72.30
2023-02-07T02:41:19.586Z,72.30
2023-02-07T02:42:19.440Z,71.98
2023-02-07T02:43:19.529Z,71.67
2023-02-07T02:44:19.375Z,71.67
2023-02-07T02:45:19.525Z,71.47
2023-02-07T02:46:19.810Z,71.81
2023-02-07T02:47:19.622Z,72.54
2023-02-07T02:48:19.439Z,72.85
2023-02-07T02:49:19.360Z,72.33
2023-02-07T02:50:19.344Z,72.23
2023-02-07T02:51:19.565Z,71.60
2023-02-07T02:52:19.398Z,71.91
2023-02-07T02:53:19.619Z,71.19
2023-02-07T02:54:19.836Z,70.94
2023-02-07T02:55:19.280Z,70.98
2023-02-07T02:56:19.587Z,71.60
2023-02-07T02:57:19.385Z,71.60
2023-02-07T02:58:20.315Z,71.19
2023-02-07T02:59:19.241Z,71.70
2023-02-07T03:00:19.305Z,72.02
2023-02-07T03:01:19.384Z,72.23
2023-02-07T03:02:19.479Z,71.91
2023-02-07T03:03:23.422Z,71.84
2023-02-07T03:04:19.224Z,71.32
2023-02-07T03:05:20.660Z,70.90
2023-02-07T03:06:19.385Z,71.29
2023-02-07T03:07:19.195Z,71.08
2023-02-07T03:08:19.288Z,71.64
2023-02-07T03:09:19.262Z,71.95
2023-02-07T03:10:19.273Z,70.80
2023-02-07T03:11:19.287Z,71.11
2023-02-07T03:12:19.665Z,71.19
2023-02-07T03:13:19.141Z,70.59
2023-02-07T03:14:19.934Z,70.48
2023-02-07T03:15:19.444Z,69.93
2023-02-07T03:16:20.254Z,69.86
2023-02-07T03:17:19.475Z,69.54
2023-02-07T03:18:19.337Z,69.13
2023-02-07T03:19:19.156Z,69.51
2023-02-07T03:20:19.471Z,70.45
2023-02-07T03:21:19.123Z,71.22
2023-02-07T03:22:19.155Z,70.04
2023-02-07T03:23:19.545Z,70.28
2023-02-07T03:24:19.264Z,69.41
2023-02-07T03:25:19.084Z,68.68
2023-02-07T03:26:19.162Z,68.16
2023-02-07T03:27:19.204Z,68.92
2023-02-07T03:28:19.081Z,69.44
2023-02-07T03:29:18.964Z,68.92
2023-02-07T03:30:18.975Z,69.76
2023-02-07T03:31:19.208Z,69.54
2023-02-07T03:32:19.095Z,69.23
2023-02-07T03:33:19.283Z,69.65
2023-02-07T03:34:19.037Z,69.13
2023-02-07T03:35:19.208Z,69.02
2023-02-07T03:36:19.925Z,69.44
2023-02-07T03:37:18.928Z,67.88
2023-02-07T03:38:19.056Z,68.71
2023-02-07T03:39:18.910Z,68.63
2023-02-07T03:40:19.914Z,69.47
2023-02-07T03:41:19.084Z,69.26
2023-02-07T03:42:19.479Z,68.95
2023-02-07T03:43:18.829Z,69.47
2023-02-07T03:44:19.227Z,68.63
2023-02-07T03:45:18.954Z,67.59
2023-02-07T03:46:18.879Z,68.53
2023-02-07T03:47:18.742Z,67.66
2023-02-07T03:48:19.059Z,66.72
2023-02-07T03:49:19.358Z,66.52
2023-02-07T03:50:19.667Z,66.38
2023-02-07T03:51:22.313Z,66.52
2023-02-07T03:52:18.771Z,66.17
2023-02-07T03:53:19.139Z,65.65
2023-02-07T03:54:18.922Z,66.17
2023-02-07T03:55:19.184Z,68.50
2023-02-07T03:56:19.029Z,69.34
2023-02-07T03:57:18.786Z,70.00
2023-02-07T03:58:19.905Z,72.43
2023-02-07T03:59:19.780Z,72.71
2023-02-07T04:00:21.190Z,72.71
2023-02-07T04:01:19.927Z,73.44
2023-02-07T04:02:19.083Z,75.35
2023-02-07T04:03:18.597Z,75.08
2023-02-07T04:04:19.119Z,76.33
2023-02-07T04:05:18.855Z,77.10
2023-02-07T04:06:18.621Z,77.83
2023-02-07T04:07:18.778Z,77.66
2023-02-07T04:08:19.111Z,78.53
2023-02-07T04:09:18.887Z,80.00
2023-02-07T04:10:18.698Z,81.26
2023-02-07T04:11:22.581Z,83.44
2023-02-07T04:12:18.658Z,85.11
2023-02-07T04:13:18.924Z,85.22
2023-02-07T04:14:35.705Z,85.32
2023-02-07T04:15:19.902Z,84.94
2023-02-07T04:16:19.918Z,84.84
2023-02-07T04:17:18.636Z,85.47
2023-02-07T04:18:18.518Z,85.47
2023-02-07T04:19:18.484Z,85.57
2023-02-07T04:20:18.498Z,81.51
2023-02-07T04:21:18.514Z,81.20
2023-02-07T04:22:18.574Z,78.39
2023-02-07T04:23:18.776Z,77.94
2023-02-07T04:24:18.664Z,77.20
2023-02-07T04:25:19.359Z,79.41
2023-02-07T04:26:18.631Z,79.09
2023-02-07T04:27:19.111Z,79.65
2023-02-07T04:28:18.401Z,78.29
2023-02-07T04:29:25.706Z,77.31
2023-02-07T04:30:18.628Z,74.55
2023-02-07T04:31:19.182Z,75.15
2023-02-07T04:32:18.359Z,76.44
2023-02-07T04:33:18.819Z,79.20
2023-02-07T04:34:19.431Z,79.72
2023-02-07T04:35:43.792Z,79.02
2023-02-07T04:36:21.328Z,79.23
2023-02-07T04:37:23.768Z,79.44
2023-02-07T04:38:37.676Z,79.75
2023-02-07T04:39:19.817Z,80.49
2023-02-07T04:40:20.624Z,81.68
2023-02-07T04:41:18.346Z,82.31
2023-02-07T04:42:19.690Z,82.56
2023-02-07T04:43:18.284Z,83.50
2023-02-07T04:44:18.301Z,82.66
2023-02-07T04:45:18.150Z,83.44
2023-02-07T04:46:18.181Z,83.75
2023-02-07T04:47:18.188Z,84.03
2023-02-07T04:48:18.193Z,84.59
2023-02-07T04:49:18.378Z,86.37
2023-02-07T04:50:19.104Z,88.87
2023-02-07T04:51:18.129Z,88.97
2023-02-07T04:52:18.592Z,88.91
2023-02-07T04:53:18.293Z,89.12
2023-02-07T04:54:18.350Z,88.80
2023-02-07T04:55:18.430Z,88.38
2023-02-07T04:56:18.887Z,88.32
2023-02-07T04:57:18.302Z,88.32
2023-02-07T04:58:18.267Z,89.26
2023-02-07T04:59:18.292Z,90.14
2023-02-07T05:00:18.393Z,90.78
2023-02-07T05:01:19.663Z,90.46
2023-02-07T05:02:18.082Z,90.04
2023-02-07T05:03:18.108Z,89.72
2023-02-07T05:04:18.175Z,90.00
2023-02-07T05:05:18.230Z,89.05
2023-02-07T05:06:19.572Z,89.05
2023-02-07T05:07:18.372Z,88.42
2023-02-07T05:08:18.010Z,87.75
2023-02-07T05:09:18.043Z,88.07
2023-02-07T05:10:18.622Z,88.17
2023-02-07T05:11:17.954Z,87.19
2023-02-07T05:12:18.014Z,88.13
2023-02-07T05:13:17.978Z,87.60
2023-02-07T05:14:18.087Z,86.52
2023-02-07T05:15:18.458Z,85.85
2023-02-07T05:16:17.998Z,84.59
2023-02-07T05:17:17.897Z,82.56
2023-02-07T05:18:17.850Z,80.70
2023-02-07T05:19:17.835Z,79.86
2023-02-07T05:20:18.143Z,79.51
2023-02-07T05:21:17.977Z,79.83
2023-02-07T05:22:17.988Z,79.83
2023-02-07T05:23:17.766Z,79.90
2023-02-07T05:24:17.714Z,79.83
2023-02-07T05:25:17.931Z,80.24
2023-02-07T05:26:18.285Z,80.66
2023-02-07T05:27:17.761Z,80.24
2023-02-07T05:28:17.839Z,79.51
2023-02-07T05:29:17.729Z,78.43
2023-02-07T05:30:17.754Z,77.34
2023-02-07T05:31:17.977Z,77.03
2023-02-07T05:32:17.916Z,77.45
2023-02-07T05:33:17.900Z,78.50
2023-02-07T05:34:17.674Z,80.10
2023-02-07T05:35:17.625Z,80.98
2023-02-07T05:36:17.704Z,81.75
2023-02-07T05:37:17.613Z,81.57
2023-02-07T05:38:17.749Z,83.47
2023-02-07T05:39:17.863Z,83.04
2023-02-07T05:40:17.619Z,83.15
2023-02-07T05:41:18.494Z,83.40
2023-02-07T05:42:17.601Z,83.25
2023-02-07T05:43:17.586Z,83.15
2023-02-07T05:44:17.905Z,83.36
2023-02-07T05:45:17.863Z,82.94
2023-02-07T05:46:18.034Z,83.40
2023-02-07T05:47:17.642Z,83.40
2023-02-07T05:48:18.296Z,84.69
2023-02-07T05:49:17.743Z,85.53
2023-02-07T05:50:17.472Z,85.57
2023-02-07T05:51:17.690Z,86.30
2023-02-07T05:52:17.776Z,86.94
2023-02-07T05:53:17.593Z,86.45
2023-02-07T05:54:17.568Z,86.98
2023-02-07T05:55:17.405Z,87.54
2023-02-07T05:56:17.525Z,87.85
2023-02-07T05:57:17.422Z,87.19
2023-02-07T05:58:17.573Z,86.55
2023-02-07T05:59:20.473Z,86.45
2023-02-07T06:00:17.750Z,86.87
2023-02-07T06:01:17.763Z,87.19
2023-02-07T06:02:17.436Z,87.19
2023-02-07T06:03:17.372Z,86.62
2023-02-07T06:04:17.370Z,86.30
2023-02-07T06:05:17.369Z,85.42
2023-02-07T06:06:18.347Z,85.53
2023-02-07T06:07:17.431Z,85.53
2023-02-07T06:08:18.141Z,85.22
2023-02-07T06:09:17.254Z,84.55
2023-02-07T06:10:17.498Z,84.13
2023-02-07T06:11:17.651Z,84.30
2023-02-07T06:12:18.000Z,83.61
2023-02-07T06:13:18.507Z,83.40
2023-02-07T06:14:17.466Z,84.23
2023-02-07T06:15:21.026Z,84.66
2023-02-07T06:16:18.142Z,85.22
2023-02-07T06:17:17.259Z,85.32
2023-02-07T06:18:17.337Z,86.27
2023-02-07T06:19:18.078Z,85.74
2023-02-07T06:20:17.380Z,85.18
2023-02-07T06:21:17.224Z,85.49
2023-02-07T06:22:17.854Z,84.66
2023-02-07T06:23:17.331Z,84.23
2023-02-07T06:24:17.178Z,84.41
2023-02-07T06:25:17.715Z,84.93
2023-02-07T06:26:17.116Z,85.08
2023-02-07T06:27:17.627Z,85.18
2023-02-07T06:28:17.395Z,85.42
2023-02-07T06:29:17.085Z,86.90
2023-02-07T06:30:17.182Z,87.15
2023-02-07T06:31:17.353Z,86.94
2023-02-07T06:32:17.273Z,86.98
2023-02-07T06:33:17.116Z,87.82
2023-02-07T06:34:17.436Z,87.71
2023-02-07T06:35:17.152Z,88.66
2023-02-07T06:36:17.057Z,89.86
2023-02-07T06:37:17.194Z,89.64
2023-02-07T06:38:17.010Z,90.17
2023-02-07T06:39:17.614Z,89.50
2023-02-07T06:40:16.969Z,90.02
2023-02-07T06:41:17.705Z,90.91
2023-02-07T06:42:16.964Z,91.11
2023-02-07T06:43:17.169Z,89.75
2023-02-07T06:44:17.572Z,89.92
2023-02-07T06:45:17.049Z,89.96
2023-02-07T06:46:17.850Z,89.75
2023-02-07T06:47:16.934Z,89.75
2023-02-07T06:48:17.885Z,90.11
2023-02-07T06:49:17.086Z,90.31
2023-02-07T06:50:17.198Z,90.94
2023-02-07T06:51:17.639Z,90.84
2023-02-07T06:52:16.828Z,91.36
2023-02-07T06:53:17.413Z,91.36
2023-02-07T06:54:17.074Z,91.64
2023-02-07T06:55:17.474Z,91.43
2023-02-07T06:56:18.612Z,91.22
2023-02-07T06:57:16.896Z,90.76
2023-02-07T06:58:16.858Z,90.09
2023-02-07T06:59:17.682Z,89.04
2023-02-07T07:00:17.644Z,87.95
2023-02-07T07:01:16.818Z,87.74
2023-02-07T07:02:18.034Z,87.63
2023-02-07T07:03:16.822Z,87.28
2023-02-07T07:04:16.863Z,87.11
2023-02-07T07:05:17.775Z,87.42
2023-02-07T07:06:16.791Z,86.90
2023-02-07T07:07:16.941Z,87.32
2023-02-07T07:08:16.864Z,88.62
2023-02-07T07:09:16.817Z,88.62
2023-02-07T07:10:17.960Z,88.93
2023-02-07T07:11:17.672Z,89.25
2023-02-07T07:12:18.057Z,89.04
2023-02-07T07:13:16.605Z,89.07
2023-02-07T07:14:16.646Z,89.98
2023-02-07T07:15:16.586Z,90.34
2023-02-07T07:16:16.741Z,90.34
2023-02-07T07:17:16.558Z,90.69
2023-02-07T07:18:16.542Z,90.91
2023-02-07T07:19:16.537Z,91.01
2023-02-07T07:20:16.544Z,91.33
2023-02-07T07:21:16.540Z,91.53
2023-02-07T07:22:16.502Z,92.06
2023-02-07T07:23:16.491Z,91.49
2023-02-07T07:24:16.486Z,89.98
2023-02-07T07:25:16.477Z,89.00
2023-02-07T07:26:16.479Z,88.37
2023-02-07T07:27:16.452Z,88.89
2023-02-07T07:28:16.543Z,89.00
2023-02-07T07:29:16.436Z,89.35
2023-02-07T07:30:16.435Z,89.42
2023-02-07T07:31:16.597Z,89.62
2023-02-07T07:32:32.093Z,89.52
2023-02-07T07:33:17.388Z,89.84
2023-02-07T07:34:16.383Z,89.62
2023-02-07T07:35:18.148Z,89.52
2023-02-07T07:36:16.390Z,89.31
2023-02-07T07:37:16.390Z,89.00
2023-02-07T07:38:16.348Z,89.10
2023-02-07T07:39:16.358Z,88.75
2023-02-07T07:40:16.330Z,88.39
2023-02-07T07:41:16.406Z,87.87
2023-02-07T07:42:16.366Z,88.81
2023-02-07T07:43:16.282Z,89.47
2023-02-07T07:44:16.295Z,89.20
2023-02-07T07:45:16.286Z,86.43
2023-02-07T07:46:16.273Z,82.14
2023-02-07T07:47:16.243Z,80.74
2023-02-07T07:48:16.323Z,77.44
2023-02-07T07:49:16.300Z,75.60
2023-02-07T07:50:16.230Z,74.11
2023-02-07T07:51:16.320Z,71.77
2023-02-07T07:52:16.192Z,71.32
2023-02-07T07:53:16.181Z,71.04
2023-02-07T07:54:16.210Z,71.01
2023-02-07T07:55:16.159Z,68.80
2023-02-07T07:56:16.180Z,67.05
2023-02-07T07:57:16.162Z,67.05
2023-02-07T07:58:16.158Z,68.29
2023-02-07T07:59:23.819Z,69.22
2023-02-07T08:00:17.125Z,67.61
2023-02-07T08:01:16.261Z,66.93
2023-02-07T08:02:16.097Z,64.83
2023-02-07T08:03:16.106Z,63.97
2023-02-07T08:04:16.092Z,64.80
2023-02-07T08:05:16.131Z,63.64
2023-02-07T08:06:16.066Z,62.81
2023-02-07T08:07:16.037Z,62.06
2023-02-07T08:08:16.027Z,62.44
2023-02-07T08:09:16.018Z,62.52
2023-02-07T08:10:16.007Z,61.52
2023-02-07T08:11:16.013Z,61.59
2023-02-07T08:12:16.083Z,60.53
2023-02-07T08:13:15.999Z,59.42
2023-02-07T08:14:16.001Z,60.41
2023-02-07T08:15:16.010Z,62.04
2023-02-07T08:16:16.004Z,63.26
2023-02-07T08:17:15.946Z,63.74
2023-02-07T08:18:15.941Z,64.77
2023-02-07T08:19:16.141Z,64.32
2023-02-07T08:20:15.914Z,64.95
2023-02-07T08:21:15.976Z,65.08
2023-02-07T08:22:15.883Z,65.78
2023-02-07T08:23:15.927Z,64.99
2023-02-07T08:24:15.931Z,63.75
2023-02-07T08:25:15.888Z,63.75
2023-02-07T08:26:15.860Z,64.62
2023-02-07T08:27:15.831Z,64.80
2023-02-07T08:28:15.961Z,61.91
2023-02-07T08:29:15.858Z,62.84
2023-02-07T08:30:15.828Z,63.59
2023-02-07T08:31:16.015Z,63.15
2023-02-07T08:32:15.789Z,64.80
2023-02-07T08:33:15.873Z,64.07
2023-02-07T08:34:15.753Z,64.83
2023-02-07T08:35:15.812Z,65.58
2023-02-07T08:36:15.807Z,66.85
2023-02-07T08:37:15.740Z,66.06
2023-02-07T08:38:15.713Z,66.96
2023-02-07T08:39:15.708Z,66.30
2023-02-07T08:40:15.811Z,66.20
2023-02-07T08:41:15.721Z,65.72
2023-02-07T08:42:15.703Z,65.30
2023-02-07T08:43:15.654Z,65.51
2023-02-07T08:44:15.671Z,66.20
2023-02-07T08:45:15.684Z,66.66
2023-02-07T08:46:15.783Z,65.31
2023-02-07T08:47:17.317Z,65.42
2023-02-07T08:48:15.628Z,65.80
2023-02-07T08:49:15.657Z,65.28
2023-02-07T08:50:15.634Z,65.34
2023-02-07T08:51:15.617Z,64.87
2023-02-07T08:52:15.595Z,64.04
2023-02-07T08:53:15.569Z,63.44
2023-02-07T08:54:15.612Z,63.96
2023-02-07T08:55:15.536Z,64.65
2023-02-07T08:56:15.573Z,64.03
2023-02-07T08:57:15.590Z,64.52
2023-02-07T08:58:15.500Z,63.62
2023-02-07T08:59:15.572Z,65.58
2023-02-07T09:00:15.540Z,66.72
2023-02-07T09:01:15.579Z,65.72
2023-02-07T09:02:15.572Z,66.06
2023-02-07T09:03:15.498Z,67.40
2023-02-07T09:04:15.480Z,67.37
2023-02-07T09:05:15.428Z,66.96
2023-02-07T09:06:15.461Z,66.03
2023-02-07T09:07:15.430Z,67.19
2023-02-07T09:08:15.397Z,67.71
2023-02-07T09:09:15.411Z,67.91
2023-02-07T09:10:15.495Z,67.19
2023-02-07T09:11:15.486Z,67.12
2023-02-07T09:12:15.347Z,67.50
2023-02-07T09:13:15.368Z,68.54
2023-02-07T09:14:15.325Z,66.96
2023-02-07T09:15:15.346Z,66.64
2023-02-07T09:16:15.377Z,67.75
2023-02-07T09:17:15.309Z,65.52
2023-02-07T09:18:15.285Z,65.94
2023-02-07T09:19:15.309Z,64.87
2023-02-07T09:20:15.334Z,65.18
2023-02-07T09:21:15.269Z,64.43
2023-02-07T09:22:15.271Z,63.64
2023-02-07T09:23:15.266Z,64.87
2023-02-07T09:24:15.225Z,63.25
2023-02-07T09:25:15.238Z,64.56
2023-02-07T09:26:15.214Z,63.50
2023-02-07T09:27:15.270Z,65.43
2023-02-07T09:28:15.255Z,63.24
2023-02-07T09:29:15.164Z,61.31
2023-02-07T09:30:15.157Z,61.44
2023-02-07T09:31:15.245Z,63.68
2023-02-07T09:32:15.137Z,61.59
2023-02-07T09:33:15.137Z,62.87
2023-02-07T09:34:15.123Z,62.35
2023-02-07T09:35:15.102Z,61.68
2023-02-07T09:36:15.128Z,60.45
2023-02-07T09:37:15.091Z,60.91
2023-02-07T09:38:15.078Z,60.84
2023-02-07T09:39:15.061Z,61.38
2023-02-07T09:40:15.050Z,61.88
2023-02-07T09:41:15.062Z,63.35
2023-02-07T09:42:15.028Z,62.43
2023-02-07T09:43:15.205Z,64.50
2023-02-07T09:44:15.214Z,63.06
2023-02-07T09:45:15.118Z,63.43
2023-02-07T09:46:15.065Z,63.64
2023-02-07T09:47:14.976Z,63.87
2023-02-07T09:48:14.964Z,64.70
2023-02-07T09:49:14.963Z,64.21
2023-02-07T09:50:15.033Z,65.52
2023-02-07T09:51:14.954Z,65.39
2023-02-07T09:52:14.957Z,63.40
2023-02-07T09:53:16.510Z,62.84
2023-02-07T09:54:14.903Z,64.89
2023-02-07T09:55:14.911Z,65.09
2023-02-07T09:56:14.906Z,65.66
2023-02-07T09:57:14.923Z,65.94
2023-02-07T09:58:14.918Z,64.56
2023-02-07T09:59:14.843Z,64.77
2023-02-07T10:00:14.840Z,63.40
2023-02-07T10:01:14.859Z,62.03
2023-02-07T10:02:14.851Z,62.54
2023-02-07T10:03:14.848Z,61.93
2023-02-07T10:04:14.794Z,61.03
2023-02-07T10:05:14.787Z,62.54
2023-02-07T10:06:18.866Z,61.38
2023-02-07T10:07:14.783Z,61.98
2023-02-07T10:08:14.777Z,59.45
2023-02-07T10:09:14.746Z,59.58
2023-02-07T10:10:14.793Z,60.63
2023-02-07T10:11:14.812Z,60.35
2023-02-07T10:12:14.699Z,61.21
2023-02-07T10:13:14.721Z,61.82
2023-02-07T10:14:14.685Z,63.24
2023-02-07T10:15:14.711Z,62.13
2023-02-07T10:16:14.837Z,61.03
2023-02-07T10:17:25.713Z,62.66
2023-02-07T10:18:15.666Z,64.48
2023-02-07T10:19:14.624Z,64.55
2023-02-07T10:20:14.612Z,63.34
2023-02-07T10:21:14.646Z,66.82
2023-02-07T10:22:14.625Z,63.65
2023-02-07T10:23:14.652Z,63.82
2023-02-07T10:24:14.613Z,65.52
2023-02-07T10:25:14.707Z,66.15
2023-02-07T10:26:14.814Z,61.61
2023-02-07T10:27:14.544Z,63.84
2023-02-07T10:28:14.737Z,63.50
2023-02-07T10:29:14.593Z,64.78
2023-02-07T10:30:14.521Z,64.41
2023-02-07T10:31:14.666Z,63.12
2023-02-07T10:32:14.515Z,61.14
2023-02-07T10:33:14.473Z,59.11
2023-02-07T10:34:14.814Z,61.05
2023-02-07T10:35:14.454Z,61.35
2023-02-07T10:36:14.556Z,63.84
2023-02-07T10:37:14.477Z,64.98
2023-02-07T10:38:14.471Z,65.95
2023-02-07T10:39:14.447Z,65.75
2023-02-07T10:40:14.421Z,65.64
2023-02-07T10:41:14.475Z,66.82
2023-02-07T10:42:14.429Z,63.62
2023-02-07T10:43:14.604Z,62.55
2023-02-07T10:44:14.362Z,61.83
2023-02-07T10:45:14.366Z,62.84
2023-02-07T10:46:14.423Z,63.85
2023-02-07T10:47:14.332Z,60.94
2023-02-07T10:48:14.335Z,59.24
2023-02-07T10:49:14.324Z,58.65
2023-02-07T10:50:18.689Z,58.29
2023-02-07T10:51:15.306Z,58.98
2023-02-07T10:52:14.672Z,57.03
2023-02-07T10:53:14.273Z,57.31
2023-02-07T10:54:14.285Z,57.75
2023-02-07T10:55:14.323Z,57.29
2023-02-07T10:56:14.288Z,58.01
2023-02-07T10:57:14.245Z,58.65
2023-02-07T10:58:22.473Z,60.51
2023-02-07T10:59:15.259Z,61.22
2023-02-07T11:00:14.407Z,59.17
2023-02-07T11:01:14.822Z,58.31
2023-02-07T11:02:14.170Z,57.57
2023-02-07T11:03:14.156Z,58.47
2023-02-07T11:04:14.168Z,59.19
2023-02-07T11:05:14.140Z,59.86
2023-02-07T11:06:14.202Z,60.72
2023-02-07T11:07:14.167Z,61.36
2023-02-07T11:08:14.134Z,62.04
2023-02-07T11:09:14.345Z,62.53
2023-02-07T11:10:14.186Z,61.80
2023-02-07T11:11:14.180Z,62.01
2023-02-07T11:12:14.097Z,61.50
2023-02-07T11:13:14.052Z,61.08
2023-02-07T11:14:14.046Z,62.32
2023-02-07T11:15:14.056Z,61.57
2023-02-07T11:16:14.107Z,61.57
2023-02-07T11:17:14.019Z,62.19
2023-02-07T11:18:14.103Z,61.13
2023-02-07T11:19:14.009Z,64.47
2023-02-07T11:20:13.969Z,62.33
2023-02-07T11:21:14.011Z,59.52
2023-02-07T11:22:14.018Z,57.57
2023-02-07T11:23:13.928Z,59.42
2023-02-07T11:24:13.937Z,59.08
2023-02-07T11:25:13.906Z,61.52
2023-02-07T11:26:13.949Z,60.88
2023-02-07T11:27:13.990Z,58.15
2023-02-07T11:28:14.199Z,56.85
2023-02-07T11:29:13.879Z,57.36
2023-02-07T11:30:13.861Z,56.98
2023-02-07T11:31:13.962Z,58.75
2023-02-07T11:32:13.895Z,57.10
2023-02-07T11:33:13.822Z,59.70
2023-02-07T11:34:13.817Z,59.30
2023-02-07T11:35:13.798Z,61.12
2023-02-07T11:36:14.069Z,59.61
2023-02-07T11:37:13.936Z,60.53
2023-02-07T11:38:13.801Z,59.86
2023-02-07T11:39:13.758Z,58.98
2023-02-07T11:40:13.756Z,58.64
2023-02-07T11:41:13.737Z,59.11
2023-02-07T11:42:13.729Z,58.23
2023-02-07T11:43:13.751Z,56.54
2023-02-07T11:44:13.727Z,56.13
2023-02-07T11:45:14.575Z,58.15
2023-02-07T11:46:13.761Z,55.66
2023-02-07T11:47:13.695Z,56.71
2023-02-07T11:48:13.662Z,57.82
2023-02-07T11:49:13.652Z,56.02
2023-02-07T11:50:13.644Z,57.21
2023-02-07T11:51:13.647Z,57.28
2023-02-07T11:52:13.645Z,58.90
2023-02-07T11:53:13.606Z,57.08
2023-02-07T11:54:14.633Z,56.18
2023-02-07T11:55:13.652Z,59.34
2023-02-07T11:56:13.586Z,60.72
2023-02-07T11:57:13.591Z,56.85
2023-02-07T11:58:13.553Z,56.28
2023-02-07T11:59:13.541Z,58.91
2023-02-07T12:00:13.555Z,58.64
2023-02-07T12:01:13.538Z,58.98
2023-02-07T12:02:13.605Z,59.67
2023-02-07T12:03:14.149Z,59.19
2023-02-07T12:04:13.497Z,57.98
2023-02-07T12:05:13.539Z,59.29
2023-02-07T12:06:13.471Z,60.31
2023-02-07T12:07:13.485Z,59.19
2023-02-07T12:08:13.464Z,61.65
2023-02-07T12:09:13.435Z,61.35
2023-02-07T12:10:13.426Z,58.75
2023-02-07T12:11:13.413Z,58.36
2023-02-07T12:12:14.191Z,59.16
2023-02-07T12:13:13.408Z,59.54
2023-02-07T12:14:13.385Z,61.21
2023-02-07T12:15:13.386Z,63.09
2023-02-07T12:16:13.873Z,62.37
2023-02-07T12:17:13.363Z,63.17
2023-02-07T12:18:13.357Z,62.04
2023-02-07T12:19:13.327Z,64.54
2023-02-07T12:20:13.327Z,62.80
2023-02-07T12:21:14.074Z,59.00
2023-02-07T12:22:13.303Z,60.85
2023-02-07T12:23:39.577Z,61.54
2023-02-07T12:24:14.278Z,62.26
2023-02-07T12:25:13.265Z,60.61
2023-02-07T12:26:13.265Z,60.95
2023-02-07T12:27:13.246Z,62.15
2023-02-07T12:28:13.287Z,61.74
2023-02-07T12:29:14.174Z,63.46
2023-02-07T12:30:13.286Z,61.54
2023-02-07T12:31:13.269Z,61.39
2023-02-07T12:32:13.416Z,60.98
2023-02-07T12:33:13.184Z,62.21
2023-02-07T12:34:13.173Z,61.18
2023-02-07T12:35:13.167Z,61.08
2023-02-07T12:36:13.159Z,63.24
2023-02-07T12:37:13.159Z,63.21
2023-02-07T12:38:14.186Z,62.83
2023-02-07T12:39:13.133Z,63.47
2023-02-07T12:40:13.144Z,62.55
2023-02-07T12:41:13.097Z,63.37
2023-02-07T12:42:13.097Z,63.29
2023-02-07T12:43:13.098Z,63.71
2023-02-07T12:44:13.064Z,63.22
2023-02-07T12:45:13.045Z,64.32
2023-02-07T12:46:13.094Z,65.66
2023-02-07T12:47:13.622Z,67.44
2023-02-07T12:48:13.073Z,66.79
2023-02-07T12:49:13.007Z,66.25
2023-02-07T12:50:13.000Z,67.00
2023-02-07T12:51:12.983Z,66.58
2023-02-07T12:52:12.992Z,67.16